createdAt,value
2023-01-25T00:01:50.315Z,55.15
2023-01-25T00:04:23.539Z,55.00
2023-01-25T00:06:51.845Z,55.11
2023-01-25T00:09:22.800Z,55.04
2023-01-25T00:11:51.353Z,55.01
2023-01-25T00:14:20.036Z,54.92
2023-01-25T00:16:48.111Z,54.92
2023-01-25T00:19:16.503Z,55.00
2023-01-25T00:21:44.686Z,54.91
2023-01-25T00:24:14.772Z,54.93
2023-01-25T00:26:46.049Z,54.96
2023-01-25T00:29:14.754Z,54.84
2023-01-25T00:32:01.326Z,55.03
2023-01-25T00:34:29.628Z,54.95
2023-01-25T00:37:14.559Z,54.98
2023-01-25T00:39:42.664Z,54.89
2023-01-25T00:42:13.295Z,54.81
2023-01-25T00:44:41.572Z,54.82
2023-01-25T00:47:13.735Z,54.85
2023-01-25T00:49:43.265Z,54.76
2023-01-25T00:52:12.146Z,54.76
2023-01-25T00:54:40.741Z,54.84
2023-01-25T00:57:10.046Z,54.66
2023-01-25T00:59:38.834Z,54.76
2023-01-25T01:02:06.921Z,54.81
2023-01-25T01:04:35.181Z,54.76
2023-01-25T01:07:03.559Z,54.62
2023-01-25T01:09:32.577Z,54.69
2023-01-25T01:12:01.064Z,54.69
2023-01-25T01:14:29.247Z,54.61
2023-01-25T01:16:58.150Z,54.69
2023-01-25T01:19:26.434Z,54.66
2023-01-25T01:21:54.496Z,54.59
2023-01-25T01:24:23.651Z,54.57
2023-01-25T01:26:51.875Z,54.61
2023-01-25T01:29:19.966Z,54.31
2023-01-25T01:31:52.693Z,54.24
2023-01-25T01:34:24.702Z,54.46
2023-01-25T01:36:52.982Z,54.39
2023-01-25T01:39:21.328Z,54.53
2023-01-25T01:41:49.546Z,54.26
2023-01-25T01:44:22.855Z,54.33
2023-01-25T01:46:59.327Z,54.34
2023-01-25T01:49:33.318Z,54.56
2023-01-25T01:52:17.799Z,54.57
2023-01-25T01:54:50.054Z,54.38
2023-01-25T01:57:22.262Z,54.11
2023-01-25T01:59:57.549Z,54.40
2023-01-25T02:02:27.101Z,54.40
2023-01-25T02:05:00.664Z,54.49
2023-01-25T02:07:36.513Z,54.29
2023-01-25T02:10:06.842Z,54.39
2023-01-25T02:12:36.872Z,54.23
2023-01-25T02:15:06.570Z,54.31
2023-01-25T02:17:37.650Z,54.21
2023-01-25T02:20:26.475Z,54.11
2023-01-25T02:23:06.952Z,54.33
2023-01-25T02:25:36.747Z,54.21
2023-01-25T02:28:11.984Z,54.41
2023-01-25T02:30:42.351Z,54.38
2023-01-25T02:33:10.915Z,54.39
2023-01-25T02:35:48.494Z,54.41
2023-01-25T02:38:21.377Z,54.16
2023-01-25T02:41:00.631Z,54.28
2023-01-25T02:43:33.298Z,54.23
2023-01-25T02:46:14.539Z,54.01
2023-01-25T02:48:45.197Z,54.07
2023-01-25T02:51:13.678Z,54.01
2023-01-25T02:53:42.074Z,54.35
2023-01-25T02:56:10.257Z,54.15
2023-01-25T02:58:38.336Z,54.17
2023-01-25T03:01:06.570Z,54.14
2023-01-25T03:03:34.686Z,54.09
2023-01-25T03:06:03.175Z,54.19
2023-01-25T03:08:31.760Z,54.00
2023-01-25T03:11:01.885Z,53.82
2023-01-25T03:13:31.708Z,53.97
2023-01-25T03:16:03.799Z,53.89
2023-01-25T03:18:32.858Z,53.96
2023-01-25T03:21:10.935Z,54.12
2023-01-25T03:23:41.090Z,53.97
2023-01-25T03:26:15.613Z,53.92
2023-01-25T03:28:57.617Z,54.08
2023-01-25T03:31:26.128Z,53.93
2023-01-25T03:33:54.480Z,54.04
2023-01-25T03:36:25.552Z,53.72
2023-01-25T03:38:53.808Z,53.69
2023-01-25T03:41:21.984Z,53.85
2023-01-25T03:43:50.063Z,53.80
2023-01-25T03:46:18.949Z,53.74
2023-01-25T03:48:47.097Z,53.87
2023-01-25T03:51:15.113Z,54.00
2023-01-25T03:53:43.390Z,53.74
2023-01-25T03:56:20.072Z,53.65
2023-01-25T03:59:11.059Z,53.63
2023-01-25T04:01:39.138Z,53.89
2023-01-25T04:04:07.231Z,53.78
2023-01-25T04:06:35.486Z,53.55
2023-01-25T04:09:05.000Z,53.66
2023-01-25T04:11:38.954Z,53.77
2023-01-25T04:14:07.502Z,53.85
2023-01-25T04:16:43.395Z,53.48
2023-01-25T04:19:29.965Z,53.76
2023-01-25T04:22:00.078Z,53.53
2023-01-25T04:24:33.061Z,53.59
2023-01-25T04:27:01.466Z,53.44
2023-01-25T04:29:40.600Z,53.42
2023-01-25T04:32:10.130Z,53.37
2023-01-25T04:34:38.556Z,53.50
2023-01-25T04:37:08.177Z,53.46
2023-01-25T04:39:43.068Z,53.42
2023-01-25T04:42:11.316Z,53.57
2023-01-25T04:44:39.566Z,53.42
2023-01-25T04:47:07.551Z,53.27
2023-01-25T04:49:35.826Z,53.22
2023-01-25T04:52:04.729Z,53.41
2023-01-25T04:54:32.724Z,53.36
2023-01-25T04:57:00.883Z,53.34
2023-01-25T04:59:29.161Z,53.33
2023-01-25T05:01:57.387Z,53.49
2023-01-25T05:04:25.608Z,53.24
2023-01-25T05:06:56.043Z,53.14
2023-01-25T05:09:25.376Z,53.40
2023-01-25T05:11:53.428Z,53.12
2023-01-25T05:14:27.028Z,53.20
2023-01-25T05:16:55.320Z,53.25
2023-01-25T05:19:23.697Z,53.47
2023-01-25T05:22:07.698Z,53.26
2023-01-25T05:24:45.341Z,53.47
2023-01-25T05:27:20.676Z,53.17
2023-01-25T05:29:55.895Z,53.37
2023-01-25T05:32:38.207Z,53.39
2023-01-25T05:35:07.967Z,53.03
2023-01-25T05:37:36.573Z,53.19
2023-01-25T05:40:10.637Z,53.46
2023-01-25T05:42:40.335Z,53.42
2023-01-25T05:45:14.558Z,53.25
2023-01-25T05:47:43.752Z,53.09
2023-01-25T05:50:12.052Z,53.13
2023-01-25T05:52:55.682Z,53.14
2023-01-25T05:55:24.052Z,53.19
2023-01-25T05:57:57.086Z,53.23
2023-01-25T06:00:25.265Z,53.29
2023-01-25T06:02:53.432Z,53.05
2023-01-25T06:05:25.259Z,53.37
2023-01-25T06:07:53.418Z,53.47
2023-01-25T06:10:23.923Z,53.20
2023-01-25T06:12:59.108Z,53.41
2023-01-25T06:15:27.390Z,53.18
2023-01-25T06:17:59.248Z,53.12
2023-01-25T06:20:48.306Z,53.21
2023-01-25T06:23:17.524Z,53.24
2023-01-25T06:25:45.715Z,52.99
2023-01-25T06:28:13.731Z,53.01
2023-01-25T06:30:41.875Z,53.17
2023-01-25T06:33:10.019Z,53.33
2023-01-25T06:35:40.551Z,53.28
2023-01-25T06:38:08.629Z,53.42
2023-01-25T06:40:36.608Z,53.41
2023-01-25T06:43:12.153Z,53.41
2023-01-25T06:45:40.316Z,53.50
2023-01-25T06:48:08.608Z,53.21
2023-01-25T06:50:36.813Z,53.31
2023-01-25T06:53:04.732Z,53.43
2023-01-25T06:55:32.732Z,53.31
2023-01-25T06:58:01.551Z,53.40
2023-01-25T07:00:29.595Z,53.38
2023-01-25T07:02:57.719Z,53.57
2023-01-25T07:05:25.776Z,53.56
2023-01-25T07:07:53.826Z,53.26
2023-01-25T07:10:21.899Z,53.29
2023-01-25T07:12:50.180Z,53.35
2023-01-25T07:15:18.269Z,53.44
2023-01-25T07:17:46.644Z,53.21
2023-01-25T07:20:14.723Z,53.44
2023-01-25T07:22:42.801Z,53.41
2023-01-25T07:25:11.420Z,53.65
2023-01-25T07:27:39.874Z,53.38
2023-01-25T07:30:08.870Z,53.76
2023-01-25T07:32:37.053Z,53.63
2023-01-25T07:35:05.639Z,53.44
2023-01-25T07:37:34.636Z,53.56
2023-01-25T07:40:02.701Z,53.63
2023-01-25T07:42:30.668Z,53.51
2023-01-25T07:45:19.228Z,53.55
2023-01-25T07:47:47.402Z,53.53
2023-01-25T07:50:16.228Z,53.81
2023-01-25T07:52:44.267Z,53.71
2023-01-25T07:55:12.435Z,53.92
2023-01-25T07:57:40.745Z,53.84
2023-01-25T08:00:10.611Z,53.91
2023-01-25T08:02:41.595Z,53.98
2023-01-25T08:05:11.072Z,53.86
2023-01-25T08:07:39.378Z,54.08
2023-01-25T08:10:07.976Z,53.82
2023-01-25T08:12:36.046Z,54.20
2023-01-25T08:15:05.043Z,54.04
2023-01-25T08:17:33.428Z,54.21
2023-01-25T08:20:01.992Z,54.17
2023-01-25T08:22:30.290Z,54.19
2023-01-25T08:25:01.341Z,54.27
2023-01-25T08:27:29.418Z,54.31
2023-01-25T08:29:57.389Z,54.15
2023-01-25T08:32:25.568Z,54.37
2023-01-25T08:34:53.749Z,54.44
2023-01-25T08:37:21.820Z,54.39
2023-01-25T08:39:49.898Z,54.35
2023-01-25T08:42:18.180Z,54.34
2023-01-25T08:44:46.257Z,54.50
2023-01-25T08:47:14.642Z,54.56
2023-01-25T08:49:42.897Z,54.59
2023-01-25T08:52:14.987Z,54.63
2023-01-25T08:54:44.396Z,54.64
2023-01-25T08:57:12.574Z,54.94
2023-01-25T08:59:40.759Z,54.83
2023-01-25T09:02:12.361Z,54.69
2023-01-25T09:04:40.350Z,54.77
2023-01-25T09:07:08.463Z,54.62
2023-01-25T09:09:36.585Z,54.91
2023-01-25T09:12:05.972Z,54.67
2023-01-25T09:14:34.116Z,54.65
2023-01-25T09:17:02.052Z,54.81
2023-01-25T09:19:30.283Z,54.65
2023-01-25T09:21:58.256Z,54.74
2023-01-25T09:24:26.367Z,54.70
2023-01-25T09:26:59.783Z,54.81
2023-01-25T09:29:28.535Z,54.77
2023-01-25T09:31:56.602Z,54.78
2023-01-25T09:34:33.476Z,54.78
2023-01-25T09:37:01.981Z,54.70
2023-01-25T09:39:30.391Z,54.77
2023-01-25T09:42:54.794Z,54.97
2023-01-25T09:45:36.410Z,54.97
2023-01-25T09:48:20.733Z,54.89
2023-01-25T09:51:02.728Z,54.88
2023-01-25T09:53:47.602Z,55.04
2023-01-25T09:56:21.389Z,55.11
2023-01-25T09:58:54.011Z,55.15
2023-01-25T10:01:51.501Z,55.10
2023-01-25T10:04:35.972Z,55.12
2023-01-25T10:07:20.025Z,55.18
2023-01-25T10:09:55.251Z,55.30
2023-01-25T10:12:25.928Z,55.40
2023-01-25T10:14:54.610Z,55.33
2023-01-25T10:17:40.675Z,55.38
2023-01-25T10:20:17.791Z,55.43
2023-01-25T10:23:24.602Z,55.30
2023-01-25T10:26:05.054Z,55.33
2023-01-25T10:28:42.332Z,55.36
2023-01-25T10:31:18.784Z,55.38
2023-01-25T10:33:48.940Z,55.38
2023-01-25T10:36:24.336Z,55.44
2023-01-25T10:38:59.334Z,55.45
2023-01-25T10:41:39.173Z,55.42
2023-01-25T10:44:21.890Z,55.47
2023-01-25T10:47:07.488Z,55.49
2023-01-25T10:49:47.223Z,55.49
2023-01-25T10:52:22.235Z,55.55
2023-01-25T10:55:12.693Z,55.48
2023-01-25T10:57:58.821Z,55.60
2023-01-25T11:00:41.095Z,55.66
2023-01-25T11:03:22.267Z,55.58
2023-01-25T11:05:55.799Z,55.54
2023-01-25T11:08:30.862Z,55.67
2023-01-25T11:10:59.696Z,55.68
2023-01-25T11:13:32.588Z,55.64
2023-01-25T11:16:07.071Z,55.75
2023-01-25T11:18:35.484Z,55.73
2023-01-25T11:21:22.298Z,55.78
2023-01-25T11:24:09.525Z,55.78
2023-01-25T11:26:40.053Z,55.82
2023-01-25T11:29:18.575Z,55.89
2023-01-25T11:31:59.193Z,55.79
2023-01-25T11:34:29.731Z,55.87
2023-01-25T11:37:11.852Z,55.87
2023-01-25T11:39:49.251Z,55.89
2023-01-25T11:42:38.847Z,55.89
2023-01-25T11:45:06.986Z,55.98
2023-01-25T11:48:03.805Z,55.94
2023-01-25T11:51:10.586Z,55.82
2023-01-25T11:54:02.904Z,55.90
2023-01-25T11:56:33.947Z,55.86
2023-01-25T11:59:08.774Z,55.89
2023-01-25T12:01:53.732Z,55.98
2023-01-25T12:04:37.162Z,55.92
2023-01-25T12:07:16.906Z,55.93
2023-01-25T12:10:01.254Z,55.96
2023-01-25T12:12:42.113Z,55.94
2023-01-25T12:15:35.072Z,55.95
2023-01-25T12:18:15.319Z,56.02
2023-01-25T12:21:30.578Z,56.00
2023-01-25T12:24:02.041Z,56.11
2023-01-25T12:27:18.691Z,56.19
2023-01-25T12:30:21.885Z,55.96
2023-01-25T12:33:08.809Z,56.01
2023-01-25T12:36:17.998Z,56.16
2023-01-25T12:39:03.371Z,56.18
2023-01-25T12:41:38.619Z,56.11
2023-01-25T12:44:14.364Z,56.11
2023-01-25T12:46:58.042Z,56.20
2023-01-25T12:49:41.517Z,55.96
2023-01-25T12:52:32.116Z,56.11
2023-01-25T12:55:03.016Z,55.96
2023-01-25T12:57:42.290Z,56.14
2023-01-25T13:00:40.280Z,56.08
2023-01-25T13:03:16.819Z,56.03
2023-01-25T13:05:50.827Z,56.06
2023-01-25T13:08:35.393Z,56.12
2023-01-25T13:11:42.036Z,55.98
2023-01-25T13:14:16.155Z,56.08
2023-01-25T13:16:51.861Z,56.08
2023-01-25T13:19:31.438Z,56.23
2023-01-25T13:22:00.789Z,56.33
2023-01-25T13:24:33.608Z,56.16
2023-01-25T13:27:24.826Z,56.30
2023-01-25T13:30:22.869Z,56.39
2023-01-25T13:32:51.066Z,56.48
2023-01-25T13:35:45.449Z,56.44
2023-01-25T13:38:31.422Z,56.53
2023-01-25T13:41:12.454Z,56.48
2023-01-25T13:43:43.557Z,56.50
2023-01-25T13:46:16.051Z,56.34
2023-01-25T13:48:54.121Z,56.48
2023-01-25T13:51:23.128Z,56.40
2023-01-25T13:53:59.570Z,56.35
2023-01-25T13:56:33.709Z,56.44
2023-01-25T13:59:02.918Z,56.58
2023-01-25T14:01:34.255Z,56.48
2023-01-25T14:04:05.215Z,56.35
2023-01-25T14:06:38.051Z,56.29
2023-01-25T14:09:17.296Z,56.21
2023-01-25T14:11:58.089Z,56.40
2023-01-25T14:14:39.182Z,56.36
2023-01-25T14:17:21.353Z,56.34
2023-01-25T14:19:53.426Z,56.32
2023-01-25T14:22:25.809Z,56.22
2023-01-25T14:25:17.126Z,56.34
2023-01-25T14:27:53.197Z,56.32
2023-01-25T14:30:24.848Z,56.31
2023-01-25T14:32:55.831Z,56.31
2023-01-25T14:35:42.602Z,56.34
2023-01-25T14:38:38.317Z,56.41
2023-01-25T14:41:21.594Z,56.41
2023-01-25T14:43:53.585Z,56.41
2023-01-25T14:46:29.738Z,56.41
2023-01-25T14:49:26.966Z,56.32
2023-01-25T14:52:10.299Z,56.27
2023-01-25T14:54:45.567Z,56.26
2023-01-25T14:57:41.132Z,56.20
2023-01-25T15:00:19.753Z,56.15
2023-01-25T15:02:55.280Z,56.17
2023-01-25T15:05:31.939Z,56.33
2023-01-25T15:08:08.963Z,56.36
2023-01-25T15:10:49.518Z,56.31
2023-01-25T15:13:24.645Z,56.29
2023-01-25T15:15:58.016Z,56.37
2023-01-25T15:18:48.433Z,56.30
2023-01-25T15:21:27.870Z,56.32
2023-01-25T15:23:58.876Z,56.11
2023-01-25T15:26:29.240Z,56.36
2023-01-25T15:28:59.791Z,56.35
2023-01-25T15:31:31.409Z,56.39
2023-01-25T15:34:01.733Z,56.07
2023-01-25T15:36:31.451Z,56.18
2023-01-25T15:38:59.966Z,56.10
2023-01-25T15:41:28.144Z,56.15
2023-01-25T15:43:56.305Z,56.15
2023-01-25T15:46:27.887Z,56.08
2023-01-25T15:48:56.242Z,56.03
2023-01-25T15:51:24.226Z,56.03
2023-01-25T15:53:52.821Z,56.00
2023-01-25T15:56:24.804Z,56.07
2023-01-25T15:58:55.039Z,56.09
2023-01-25T16:01:27.197Z,56.11
2023-01-25T16:03:56.767Z,56.03
2023-01-25T16:06:40.724Z,56.07
2023-01-25T16:09:25.392Z,56.05
2023-01-25T16:11:58.413Z,56.15
2023-01-25T16:14:31.957Z,56.05
2023-01-25T16:17:03.094Z,56.10
2023-01-25T16:19:31.904Z,56.23
2023-01-25T16:22:00.222Z,56.06
2023-01-25T16:24:28.294Z,56.22
2023-01-25T16:26:59.315Z,56.14
2023-01-25T16:29:29.050Z,56.19
2023-01-25T16:31:57.466Z,56.12
2023-01-25T16:34:25.780Z,56.18
2023-01-25T16:36:54.297Z,56.13
2023-01-25T16:39:24.491Z,56.20
2023-01-25T16:41:53.005Z,56.15
2023-01-25T16:44:21.267Z,56.08
2023-01-25T16:46:50.529Z,56.05
2023-01-25T16:49:26.565Z,56.16
2023-01-25T16:51:55.439Z,55.98
2023-01-25T16:54:24.304Z,56.13
2023-01-25T16:56:54.022Z,56.12
2023-01-25T16:59:23.915Z,56.10
2023-01-25T17:01:52.566Z,55.98
2023-01-25T17:04:20.810Z,56.03
2023-01-25T17:06:50.770Z,55.92
2023-01-25T17:09:25.493Z,56.03
2023-01-25T17:11:55.433Z,56.11
2023-01-25T17:14:23.717Z,56.02
2023-01-25T17:16:55.656Z,55.85
2023-01-25T17:19:24.217Z,55.94
2023-01-25T17:21:52.285Z,55.97
2023-01-25T17:24:21.854Z,55.94
2023-01-25T17:26:51.218Z,55.90
2023-01-25T17:29:19.406Z,55.89
2023-01-25T17:31:48.531Z,55.84
2023-01-25T17:34:18.751Z,55.84
2023-01-25T17:36:46.876Z,55.75
2023-01-25T17:39:16.941Z,55.87
2023-01-25T17:41:47.910Z,55.83
2023-01-25T17:44:24.634Z,55.87
2023-01-25T17:46:53.120Z,55.78
2023-01-25T17:49:22.697Z,55.84
2023-01-25T17:51:51.223Z,55.94
2023-01-25T17:54:19.924Z,55.86
2023-01-25T17:56:48.075Z,55.78
2023-01-25T17:59:16.161Z,55.87
2023-01-25T18:01:44.204Z,55.81
2023-01-25T18:04:13.496Z,55.78
2023-01-25T18:06:41.813Z,55.84
2023-01-25T18:09:09.899Z,55.92
2023-01-25T18:11:41.044Z,55.89
2023-01-25T18:14:12.877Z,55.89
2023-01-25T18:16:41.589Z,55.86
2023-01-25T18:19:10.584Z,55.74
2023-01-25T18:21:39.684Z,55.74
2023-01-25T18:24:29.968Z,55.78
2023-01-25T18:27:08.060Z,55.77
2023-01-25T18:29:46.080Z,55.64
2023-01-25T18:32:15.785Z,55.57
2023-01-25T18:34:43.879Z,55.59
2023-01-25T18:37:18.204Z,55.63
2023-01-25T18:39:54.395Z,55.73
2023-01-25T18:42:25.152Z,55.54
2023-01-25T18:44:53.373Z,55.77
2023-01-25T18:47:23.281Z,55.76
2023-01-25T18:49:53.012Z,55.63
2023-01-25T18:52:22.817Z,55.47
2023-01-25T18:54:51.910Z,55.56
2023-01-25T18:57:20.718Z,55.55
2023-01-25T18:59:49.155Z,55.54
2023-01-25T19:02:18.117Z,55.53
2023-01-25T19:04:46.416Z,55.56
2023-01-25T19:07:14.958Z,55.51
2023-01-25T19:09:44.077Z,55.54
2023-01-25T19:12:12.134Z,55.48
2023-01-25T19:14:40.326Z,55.42
2023-01-25T19:17:09.003Z,55.33
2023-01-25T19:19:37.480Z,55.30
2023-01-25T19:22:05.672Z,55.33
2023-01-25T19:24:33.842Z,55.39
2023-01-25T19:27:02.331Z,55.47
2023-01-25T19:29:30.412Z,55.38
2023-01-25T19:31:58.603Z,55.32
2023-01-25T19:34:27.068Z,55.28
2023-01-25T19:36:55.910Z,55.33
2023-01-25T19:39:24.149Z,55.34
2023-01-25T19:41:53.489Z,55.39
2023-01-25T19:44:22.038Z,55.33
2023-01-25T19:46:50.321Z,55.20
2023-01-25T19:49:18.491Z,55.28
2023-01-25T19:51:53.156Z,55.18
2023-01-25T19:54:23.146Z,55.28
2023-01-25T19:56:51.750Z,55.29
2023-01-25T19:59:22.284Z,55.24
2023-01-25T20:01:50.667Z,55.20
2023-01-25T20:04:21.524Z,55.19
2023-01-25T20:06:50.840Z,55.18
2023-01-25T20:09:27.797Z,55.27
2023-01-25T20:11:57.414Z,55.15
2023-01-25T20:14:25.452Z,55.09
2023-01-25T20:16:53.839Z,55.16
2023-01-25T20:19:21.841Z,55.20
2023-01-25T20:21:49.887Z,55.10
2023-01-25T20:24:18.206Z,55.20
2023-01-25T20:26:46.290Z,55.14
2023-01-25T20:29:14.939Z,55.13
2023-01-25T20:31:45.393Z,55.13
2023-01-25T20:34:16.790Z,55.13
2023-01-25T20:36:45.833Z,55.22
2023-01-25T20:39:19.247Z,55.18
2023-01-25T20:41:47.959Z,55.09
2023-01-25T20:44:18.043Z,55.17
2023-01-25T20:46:46.468Z,55.22
2023-01-25T20:49:16.858Z,55.14
2023-01-25T20:51:46.370Z,55.08
2023-01-25T20:54:15.244Z,55.04
2023-01-25T20:56:47.982Z,55.05
2023-01-25T20:59:17.821Z,54.98
2023-01-25T21:01:46.893Z,55.00
2023-01-25T21:04:15.127Z,54.91
2023-01-25T21:06:43.527Z,54.91
2023-01-25T21:09:12.651Z,54.89
2023-01-25T21:11:41.508Z,54.82
2023-01-25T21:14:09.538Z,54.74
2023-01-25T21:16:37.851Z,54.81
2023-01-25T21:19:07.166Z,54.76
2023-01-25T21:21:35.970Z,54.70
2023-01-25T21:24:05.940Z,54.63
2023-01-25T21:26:35.793Z,54.65
2023-01-25T21:29:05.921Z,54.67
2023-01-25T21:31:36.689Z,54.70
2023-01-25T21:34:06.557Z,54.80
2023-01-25T21:36:34.774Z,54.80
2023-01-25T21:39:03.554Z,54.79
2023-01-25T21:41:33.809Z,54.82
2023-01-25T21:44:21.340Z,54.87
2023-01-25T21:47:16.254Z,54.91
2023-01-25T21:49:56.633Z,54.89
2023-01-25T21:52:24.820Z,54.92
2023-01-25T21:54:52.894Z,54.95
2023-01-25T21:57:20.936Z,54.96
2023-01-25T21:59:49.357Z,55.07
2023-01-25T22:02:17.489Z,55.11
2023-01-25T22:04:45.813Z,55.19
2023-01-25T22:07:14.194Z,55.24
2023-01-25T22:09:42.462Z,55.28
2023-01-25T22:12:12.424Z,55.17
2023-01-25T22:14:40.781Z,55.25
2023-01-25T22:17:09.161Z,55.35
2023-01-25T22:19:37.442Z,55.22
2023-01-25T22:22:05.408Z,55.06
2023-01-25T22:24:33.594Z,55.16
2023-01-25T22:27:36.870Z,55.28
2023-01-25T22:30:06.440Z,55.11
2023-01-25T22:32:34.577Z,55.04
2023-01-25T22:35:02.947Z,55.05
2023-01-25T22:37:31.008Z,55.04
2023-01-25T22:39:59.206Z,54.93
2023-01-25T22:42:27.375Z,54.92
2023-01-25T22:44:55.478Z,54.91
2023-01-25T22:47:23.531Z,55.00
2023-01-25T22:49:51.766Z,54.91
2023-01-25T22:52:19.893Z,54.92
2023-01-25T22:54:50.251Z,54.98
2023-01-25T22:57:18.345Z,54.95
2023-01-25T22:59:46.575Z,54.83
2023-01-25T23:02:14.859Z,54.90
2023-01-25T23:04:43.181Z,54.88
2023-01-25T23:07:19.044Z,54.86
2023-01-25T23:09:51.757Z,54.88
2023-01-25T23:12:20.668Z,54.86
2023-01-25T23:14:51.973Z,54.87
2023-01-25T23:17:48.268Z,54.86
2023-01-25T23:20:16.719Z,54.80
2023-01-25T23:22:45.076Z,54.88
2023-01-25T23:25:13.487Z,54.88
2023-01-25T23:27:41.684Z,54.89
2023-01-25T23:30:11.158Z,54.78
2023-01-25T23:32:40.251Z,54.81
2023-01-25T23:35:08.448Z,54.82
2023-01-25T23:37:36.536Z,54.87
2023-01-25T23:40:09.177Z,54.82
2023-01-25T23:42:38.481Z,54.86
2023-01-25T23:45:08.319Z,54.70
2023-01-25T23:47:36.509Z,54.68
2023-01-25T23:50:05.619Z,54.69
2023-01-25T23:52:35.181Z,54.66
2023-01-25T23:55:03.506Z,54.70
2023-01-25T23:57:31.787Z,54.67
2023-01-25T23:59:59.860Z,54.60
